sensor_id;sensor_type;location;lat;lon;timestamp;temperature;humidity
10417;DHT22;5255;49.432;8.680;2022-07-29T00:00:29;23.00;99.90
10417;DHT22;5255;49.432;8.680;2022-07-29T00:02:56;22.90;99.90
10417;DHT22;5255;49.432;8.680;2022-07-29T00:05:24;22.80;99.90
10417;DHT22;5255;49.432;8.680;2022-07-29T00:07:51;22.80;99.90
10417;DHT22;5255;49.432;8.680;2022-07-29T00:10:19;22.80;99.90
10417;DHT22;5255;49.432;8.680;2022-07-29T00:12:47;22.70;1.00
10417;DHT22;5255;49.432;8.680;2022-07-29T00:15:14;22.60;1.00
10417;DHT22;5255;49.432;8.680;2022-07-29T00:17:41;22.60;1.00
10417;DHT22;5255;49.432;8.680;2022-07-29T00:20:09;22.60;1.00
10417;DHT22;5255;49.432;8.680;2022-07-29T00:22:37;22.60;1.00
10417;DHT22;5255;49.432;8.680;2022-07-29T00:25:05;22.60;1.00
10417;DHT22;5255;49.432;8.680;2022-07-29T00:27:34;22.60;1.00
10417;DHT22;5255;49.432;8.680;2022-07-29T00:30:02;22.60;1.00
10417;DHT22;5255;49.432;8.680;2022-07-29T00:32:29;22.60;1.00
10417;DHT22;5255;49.432;8.680;2022-07-29T00:34:56;22.60;1.00
10417;DHT22;5255;49.432;8.680;2022-07-29T00:37:41;22.60;1.00
10417;DHT22;5255;49.432;8.680;2022-07-29T00:40:08;22.50;1.00
10417;DHT22;5255;49.432;8.680;2022-07-29T00:42:43;22.50;1.00
10417;DHT22;5255;49.432;8.680;2022-07-29T00:45:11;22.50;1.00
10417;DHT22;5255;49.432;8.680;2022-07-29T00:47:38;22.50;1.00
10417;DHT22;5255;49.432;8.680;2022-07-29T00:50:07;22.50;1.00
10417;DHT22;5255;49.432;8.680;2022-07-29T00:52:36;22.50;1.00
10417;DHT22;5255;49.432;8.680;2022-07-29T00:55:05;22.50;1.00
10417;DHT22;5255;49.432;8.680;2022-07-29T00:57:33;22.50;1.00
10417;DHT22;5255;49.432;8.680;2022-07-29T01:00:03;22.50;1.00
10417;DHT22;5255;49.432;8.680;2022-07-29T01:02:30;22.50;1.00
10417;DHT22;5255;49.432;8.680;2022-07-29T01:04:58;22.60;1.00
10417;DHT22;5255;49.432;8.680;2022-07-29T01:07:25;22.60;1.00
10417;DHT22;5255;49.432;8.680;2022-07-29T01:09:53;22.50;1.00
10417;DHT22;5255;49.432;8.680;2022-07-29T01:12:24;22.50;1.00
10417;DHT22;5255;49.432;8.680;2022-07-29T01:14:52;22.50;1.00
10417;DHT22;5255;49.432;8.680;2022-07-29T01:17:23;22.50;1.00
10417;DHT22;5255;49.432;8.680;2022-07-29T01:19:57;22.50;1.00
10417;DHT22;5255;49.432;8.680;2022-07-29T01:22:35;22.40;1.00
10417;DHT22;5255;49.432;8.680;2022-07-29T01:25:12;22.30;1.00
10417;DHT22;5255;49.432;8.680;2022-07-29T01:28:01;22.20;1.00
10417;DHT22;5255;49.432;8.680;2022-07-29T01:30:30;22.10;1.00
10417;DHT22;5255;49.432;8.680;2022-07-29T01:33:03;22.00;1.00
10417;DHT22;5255;49.432;8.680;2022-07-29T01:35:38;22.10;1.00
10417;DHT22;5255;49.432;8.680;2022-07-29T01:38:09;22.10;1.00
10417;DHT22;5255;49.432;8.680;2022-07-29T01:40:43;22.10;1.00
10417;DHT22;5255;49.432;8.680;2022-07-29T01:43:14;22.10;1.00
10417;DHT22;5255;49.432;8.680;2022-07-29T01:45:46;22.10;1.00
10417;DHT22;5255;49.432;8.680;2022-07-29T01:48:18;22.00;1.00
10417;DHT22;5255;49.432;8.680;2022-07-29T01:50:49;22.00;1.00
10417;DHT22;5255;49.432;8.680;2022-07-29T01:53:24;22.00;1.00
10417;DHT22;5255;49.432;8.680;2022-07-29T01:55:53;22.00;1.00
10417;DHT22;5255;49.432;8.680;2022-07-29T01:58:22;21.90;1.00
10417;DHT22;5255;49.432;8.680;2022-07-29T02:00:51;21.90;1.00
10417;DHT22;5255;49.432;8.680;2022-07-29T02:03:20;21.90;1.00
10417;DHT22;5255;49.432;8.680;2022-07-29T02:05:49;21.90;1.00
10417;DHT22;5255;49.432;8.680;2022-07-29T02:08:18;21.90;1.00
10417;DHT22;5255;49.432;8.680;2022-07-29T02:10:47;21.90;1.00
10417;DHT22;5255;49.432;8.680;2022-07-29T02:13:16;21.90;1.00
10417;DHT22;5255;49.432;8.680;2022-07-29T02:15:44;21.90;1.00
10417;DHT22;5255;49.432;8.680;2022-07-29T02:18:17;21.90;1.00
10417;DHT22;5255;49.432;8.680;2022-07-29T02:20:47;21.90;1.00
10417;DHT22;5255;49.432;8.680;2022-07-29T02:23:17;21.90;1.00
10417;DHT22;5255;49.432;8.680;2022-07-29T02:25:46;21.90;1.00
10417;DHT22;5255;49.432;8.680;2022-07-29T02:28:15;21.90;1.00
10417;DHT22;5255;49.432;8.680;2022-07-29T02:30:43;21.80;1.00
10417;DHT22;5255;49.432;8.680;2022-07-29T02:33:15;21.90;1.00
10417;DHT22;5255;49.432;8.680;2022-07-29T02:35:47;21.80;1.00
10417;DHT22;5255;49.432;8.680;2022-07-29T02:38:16;21.80;1.00
10417;DHT22;5255;49.432;8.680;2022-07-29T02:41:04;21.80;1.00
10417;DHT22;5255;49.432;8.680;2022-07-29T02:43:33;21.80;1.00
10417;DHT22;5255;49.432;8.680;2022-07-29T02:46:03;21.70;1.00
10417;DHT22;5255;49.432;8.680;2022-07-29T02:48:37;21.70;1.00
10417;DHT22;5255;49.432;8.680;2022-07-29T02:51:08;21.70;1.00
10417;DHT22;5255;49.432;8.680;2022-07-29T02:53:39;21.80;1.00
10417;DHT22;5255;49.432;8.680;2022-07-29T02:56:11;21.70;1.00
10417;DHT22;5255;49.432;8.680;2022-07-29T02:58:42;21.60;1.00
10417;DHT22;5255;49.432;8.680;2022-07-29T03:01:14;21.60;1.00
10417;DHT22;5255;49.432;8.680;2022-07-29T03:03:45;21.60;1.00
10417;DHT22;5255;49.432;8.680;2022-07-29T03:06:14;21.50;1.00
10417;DHT22;5255;49.432;8.680;2022-07-29T03:08:42;21.60;1.00
10417;DHT22;5255;49.432;8.680;2022-07-29T03:11:11;21.60;1.00
10417;DHT22;5255;49.432;8.680;2022-07-29T03:13:39;21.60;1.00
10417;DHT22;5255;49.432;8.680;2022-07-29T03:16:09;21.60;1.00
10417;DHT22;5255;49.432;8.680;2022-07-29T03:18:37;21.60;1.00
10417;DHT22;5255;49.432;8.680;2022-07-29T03:21:06;21.70;1.00
10417;DHT22;5255;49.432;8.680;2022-07-29T03:23:33;21.70;1.00
10417;DHT22;5255;49.432;8.680;2022-07-29T03:26:00;21.70;1.00
10417;DHT22;5255;49.432;8.680;2022-07-29T03:28:27;21.70;1.00
10417;DHT22;5255;49.432;8.680;2022-07-29T03:30:54;21.60;1.00
10417;DHT22;5255;49.432;8.680;2022-07-29T03:33:22;21.60;1.00
10417;DHT22;5255;49.432;8.680;2022-07-29T03:35:49;21.60;1.00
10417;DHT22;5255;49.432;8.680;2022-07-29T03:38:17;21.60;1.00
10417;DHT22;5255;49.432;8.680;2022-07-29T03:40:49;21.50;1.00
10417;DHT22;5255;49.432;8.680;2022-07-29T03:43:17;21.40;1.00
10417;DHT22;5255;49.432;8.680;2022-07-29T03:45:49;21.50;1.00
10417;DHT22;5255;49.432;8.680;2022-07-29T03:48:20;21.50;1.00
10417;DHT22;5255;49.432;8.680;2022-07-29T03:50:48;21.40;1.00
10417;DHT22;5255;49.432;8.680;2022-07-29T03:53:18;21.30;1.00
10417;DHT22;5255;49.432;8.680;2022-07-29T03:55:48;21.30;1.00
10417;DHT22;5255;49.432;8.680;2022-07-29T03:58:18;21.20;1.00
10417;DHT22;5255;49.432;8.680;2022-07-29T04:00:46;21.30;1.00
10417;DHT22;5255;49.432;8.680;2022-07-29T04:03:13;21.10;1.00
10417;DHT22;5255;49.432;8.680;2022-07-29T04:05:41;21.10;1.00
10417;DHT22;5255;49.432;8.680;2022-07-29T04:08:08;21.20;1.00
10417;DHT22;5255;49.432;8.680;2022-07-29T04:10:38;21.10;1.00
10417;DHT22;5255;49.432;8.680;2022-07-29T04:13:05;21.10;1.00
10417;DHT22;5255;49.432;8.680;2022-07-29T04:15:32;21.10;1.00
10417;DHT22;5255;49.432;8.680;2022-07-29T04:17:59;21.20;1.00
10417;DHT22;5255;49.432;8.680;2022-07-29T04:20:26;21.10;1.00
10417;DHT22;5255;49.432;8.680;2022-07-29T04:22:53;21.10;1.00
10417;DHT22;5255;49.432;8.680;2022-07-29T04:25:21;21.10;1.00
10417;DHT22;5255;49.432;8.680;2022-07-29T04:27:49;21.20;1.00
10417;DHT22;5255;49.432;8.680;2022-07-29T04:30:30;21.20;1.00
10417;DHT22;5255;49.432;8.680;2022-07-29T04:32:57;21.20;1.00
10417;DHT22;5255;49.432;8.680;2022-07-29T04:35:26;21.20;1.00
10417;DHT22;5255;49.432;8.680;2022-07-29T04:37:53;21.30;1.00
10417;DHT22;5255;49.432;8.680;2022-07-29T04:40:20;21.20;1.00
10417;DHT22;5255;49.432;8.680;2022-07-29T04:42:49;21.20;1.00
10417;DHT22;5255;49.432;8.680;2022-07-29T04:45:16;21.10;1.00
10417;DHT22;5255;49.432;8.680;2022-07-29T04:47:44;21.10;1.00
10417;DHT22;5255;49.432;8.680;2022-07-29T04:50:11;21.00;1.00
10417;DHT22;5255;49.432;8.680;2022-07-29T04:52:38;21.00;1.00
10417;DHT22;5255;49.432;8.680;2022-07-29T04:55:06;21.00;1.00
10417;DHT22;5255;49.432;8.680;2022-07-29T04:57:33;21.00;1.00
10417;DHT22;5255;49.432;8.680;2022-07-29T05:00:03;21.00;1.00
10417;DHT22;5255;49.432;8.680;2022-07-29T05:02:30;21.00;1.00
10417;DHT22;5255;49.432;8.680;2022-07-29T05:04:57;21.00;1.00
10417;DHT22;5255;49.432;8.680;2022-07-29T05:07:24;21.00;1.00
10417;DHT22;5255;49.432;8.680;2022-07-29T05:09:52;21.00;1.00
10417;DHT22;5255;49.432;8.680;2022-07-29T05:12:19;21.00;1.00
10417;DHT22;5255;49.432;8.680;2022-07-29T05:14:46;21.10;1.00
10417;DHT22;5255;49.432;8.680;2022-07-29T05:17:14;21.10;1.00
10417;DHT22;5255;49.432;8.680;2022-07-29T05:19:42;21.10;1.00
10417;DHT22;5255;49.432;8.680;2022-07-29T05:22:09;21.10;1.00
10417;DHT22;5255;49.432;8.680;2022-07-29T05:24:36;21.20;1.00
10417;DHT22;5255;49.432;8.680;2022-07-29T05:27:03;21.10;1.00
10417;DHT22;5255;49.432;8.680;2022-07-29T05:29:30;21.00;1.00
10417;DHT22;5255;49.432;8.680;2022-07-29T05:31:57;21.00;1.00
10417;DHT22;5255;49.432;8.680;2022-07-29T05:34:26;21.10;1.00
10417;DHT22;5255;49.432;8.680;2022-07-29T05:36:53;21.20;1.00
10417;DHT22;5255;49.432;8.680;2022-07-29T05:39:20;21.30;1.00
10417;DHT22;5255;49.432;8.680;2022-07-29T05:41:47;21.40;1.00
10417;DHT22;5255;49.432;8.680;2022-07-29T05:44:15;21.60;1.00
10417;DHT22;5255;49.432;8.680;2022-07-29T05:46:42;21.70;1.00
10417;DHT22;5255;49.432;8.680;2022-07-29T05:49:09;21.90;1.00
10417;DHT22;5255;49.432;8.680;2022-07-29T05:51:38;21.90;1.00
10417;DHT22;5255;49.432;8.680;2022-07-29T05:54:05;22.00;1.00
10417;DHT22;5255;49.432;8.680;2022-07-29T05:56:32;22.10;1.00
10417;DHT22;5255;49.432;8.680;2022-07-29T05:58:59;22.20;1.00
10417;DHT22;5255;49.432;8.680;2022-07-29T06:01:26;22.30;1.00
10417;DHT22;5255;49.432;8.680;2022-07-29T06:03:53;22.40;1.00
10417;DHT22;5255;49.432;8.680;2022-07-29T06:06:20;22.40;1.00
10417;DHT22;5255;49.432;8.680;2022-07-29T06:08:49;22.50;1.00
10417;DHT22;5255;49.432;8.680;2022-07-29T06:11:16;22.50;1.00
10417;DHT22;5255;49.432;8.680;2022-07-29T06:13:43;22.60;1.00
10417;DHT22;5255;49.432;8.680;2022-07-29T06:16:11;22.70;1.00
10417;DHT22;5255;49.432;8.680;2022-07-29T06:18:38;22.80;1.00
10417;DHT22;5255;49.432;8.680;2022-07-29T06:21:08;22.80;1.00
10417;DHT22;5255;49.432;8.680;2022-07-29T06:23:36;22.80;1.00
10417;DHT22;5255;49.432;8.680;2022-07-29T06:26:05;22.90;1.00
10417;DHT22;5255;49.432;8.680;2022-07-29T06:28:32;23.00;1.00
10417;DHT22;5255;49.432;8.680;2022-07-29T06:30:59;22.90;1.00
10417;DHT22;5255;49.432;8.680;2022-07-29T06:33:27;23.00;1.00
10417;DHT22;5255;49.432;8.680;2022-07-29T06:35:54;23.20;1.00
10417;DHT22;5255;49.432;8.680;2022-07-29T06:38:21;23.30;1.00
10417;DHT22;5255;49.432;8.680;2022-07-29T06:40:48;23.40;1.00
10417;DHT22;5255;49.432;8.680;2022-07-29T06:43:28;23.70;1.00
10417;DHT22;5255;49.432;8.680;2022-07-29T06:45:58;23.70;1.00
10417;DHT22;5255;49.432;8.680;2022-07-29T06:48:27;23.70;1.00
10417;DHT22;5255;49.432;8.680;2022-07-29T06:50:54;23.50;1.00
10417;DHT22;5255;49.432;8.680;2022-07-29T06:53:21;23.50;1.00
10417;DHT22;5255;49.432;8.680;2022-07-29T06:55:48;23.60;1.00
10417;DHT22;5255;49.432;8.680;2022-07-29T06:58:16;23.60;1.00
10417;DHT22;5255;49.432;8.680;2022-07-29T07:00:47;23.80;1.00
10417;DHT22;5255;49.432;8.680;2022-07-29T07:03:14;23.80;1.00
10417;DHT22;5255;49.432;8.680;2022-07-29T07:05:41;23.70;1.00
10417;DHT22;5255;49.432;8.680;2022-07-29T07:08:10;23.70;1.00
10417;DHT22;5255;49.432;8.680;2022-07-29T07:10:37;23.60;1.00
10417;DHT22;5255;49.432;8.680;2022-07-29T07:13:05;23.50;1.00
10417;DHT22;5255;49.432;8.680;2022-07-29T07:15:33;23.70;1.00
10417;DHT22;5255;49.432;8.680;2022-07-29T07:18:01;23.70;1.00
10417;DHT22;5255;49.432;8.680;2022-07-29T07:20:28;23.70;1.00
10417;DHT22;5255;49.432;8.680;2022-07-29T07:22:55;23.90;1.00
10417;DHT22;5255;49.432;8.680;2022-07-29T07:25:22;24.10;1.00
10417;DHT22;5255;49.432;8.680;2022-07-29T07:27:49;24.30;1.00
10417;DHT22;5255;49.432;8.680;2022-07-29T07:30:17;24.30;1.00
10417;DHT22;5255;49.432;8.680;2022-07-29T07:32:44;24.20;1.00
10417;DHT22;5255;49.432;8.680;2022-07-29T07:35:13;24.40;1.00
10417;DHT22;5255;49.432;8.680;2022-07-29T07:37:40;24.10;1.00
10417;DHT22;5255;49.432;8.680;2022-07-29T07:40:09;23.90;1.00
10417;DHT22;5255;49.432;8.680;2022-07-29T07:42:38;24.10;1.00
10417;DHT22;5255;49.432;8.680;2022-07-29T07:45:06;24.40;1.00
10417;DHT22;5255;49.432;8.680;2022-07-29T07:47:34;24.50;1.00
10417;DHT22;5255;49.432;8.680;2022-07-29T07:50:03;24.70;1.00
10417;DHT22;5255;49.432;8.680;2022-07-29T07:52:31;25.00;1.00
10417;DHT22;5255;49.432;8.680;2022-07-29T07:54:59;24.90;1.00
10417;DHT22;5255;49.432;8.680;2022-07-29T07:57:26;24.90;1.00
10417;DHT22;5255;49.432;8.680;2022-07-29T07:59:53;24.80;1.00
10417;DHT22;5255;49.432;8.680;2022-07-29T08:02:20;24.60;1.00
10417;DHT22;5255;49.432;8.680;2022-07-29T08:04:48;24.50;1.00
10417;DHT22;5255;49.432;8.680;2022-07-29T08:07:14;24.40;1.00
10417;DHT22;5255;49.432;8.680;2022-07-29T08:09:43;24.50;1.00
10417;DHT22;5255;49.432;8.680;2022-07-29T08:12:10;24.90;1.00
10417;DHT22;5255;49.432;8.680;2022-07-29T08:14:37;25.50;1.00
10417;DHT22;5255;49.432;8.680;2022-07-29T08:17:05;25.40;1.00
10417;DHT22;5255;49.432;8.680;2022-07-29T08:19:32;25.70;1.00
10417;DHT22;5255;49.432;8.680;2022-07-29T08:21:59;26.00;1.00
10417;DHT22;5255;49.432;8.680;2022-07-29T08:24:26;25.90;1.00
10417;DHT22;5255;49.432;8.680;2022-07-29T08:27:19;25.80;1.00
10417;DHT22;5255;49.432;8.680;2022-07-29T08:29:47;25.60;1.00
10417;DHT22;5255;49.432;8.680;2022-07-29T08:32:14;25.40;1.00
10417;DHT22;5255;49.432;8.680;2022-07-29T08:34:41;25.50;1.00
10417;DHT22;5255;49.432;8.680;2022-07-29T08:37:11;25.80;1.00
10417;DHT22;5255;49.432;8.680;2022-07-29T08:39:39;25.80;1.00
10417;DHT22;5255;49.432;8.680;2022-07-29T08:42:06;26.00;1.00
10417;DHT22;5255;49.432;8.680;2022-07-29T08:44:36;25.60;1.00
10417;DHT22;5255;49.432;8.680;2022-07-29T08:47:04;25.20;1.00
10417;DHT22;5255;49.432;8.680;2022-07-29T08:49:33;25.30;1.00
10417;DHT22;5255;49.432;8.680;2022-07-29T08:52:01;25.30;1.00
10417;DHT22;5255;49.432;8.680;2022-07-29T08:54:29;25.40;1.00
10417;DHT22;5255;49.432;8.680;2022-07-29T08:56:57;25.40;1.00
10417;DHT22;5255;49.432;8.680;2022-07-29T08:59:27;26.10;1.00
10417;DHT22;5255;49.432;8.680;2022-07-29T09:01:57;26.50;1.00
10417;DHT22;5255;49.432;8.680;2022-07-29T09:04:29;26.60;1.00
10417;DHT22;5255;49.432;8.680;2022-07-29T09:07:00;26.50;1.00
10417;DHT22;5255;49.432;8.680;2022-07-29T09:09:31;26.90;1.00
10417;DHT22;5255;49.432;8.680;2022-07-29T09:12:00;27.20;1.00
10417;DHT22;5255;49.432;8.680;2022-07-29T09:14:29;26.90;1.00
10417;DHT22;5255;49.432;8.680;2022-07-29T09:16:57;26.50;1.00
10417;DHT22;5255;49.432;8.680;2022-07-29T09:19:30;26.50;1.00
10417;DHT22;5255;49.432;8.680;2022-07-29T09:21:59;26.30;1.00
10417;DHT22;5255;49.432;8.680;2022-07-29T09:24:41;26.20;1.00
10417;DHT22;5255;49.432;8.680;2022-07-29T09:27:19;26.30;1.00
10417;DHT22;5255;49.432;8.680;2022-07-29T09:29:56;26.50;1.00
10417;DHT22;5255;49.432;8.680;2022-07-29T09:32:26;26.20;1.00
10417;DHT22;5255;49.432;8.680;2022-07-29T09:35:14;26.40;1.00
10417;DHT22;5255;49.432;8.680;2022-07-29T09:37:42;26.20;1.00
10417;DHT22;5255;49.432;8.680;2022-07-29T09:40:13;26.20;1.00
10417;DHT22;5255;49.432;8.680;2022-07-29T09:42:42;26.40;1.00
10417;DHT22;5255;49.432;8.680;2022-07-29T09:45:10;26.80;1.00
10417;DHT22;5255;49.432;8.680;2022-07-29T09:47:43;26.80;1.00
10417;DHT22;5255;49.432;8.680;2022-07-29T09:50:15;26.70;1.00
10417;DHT22;5255;49.432;8.680;2022-07-29T09:52:46;26.40;1.00
10417;DHT22;5255;49.432;8.680;2022-07-29T09:55:14;26.80;1.00
10417;DHT22;5255;49.432;8.680;2022-07-29T09:57:42;27.30;1.00
10417;DHT22;5255;49.432;8.680;2022-07-29T10:00:12;27.20;1.00
10417;DHT22;5255;49.432;8.680;2022-07-29T10:02:42;27.40;1.00
10417;DHT22;5255;49.432;8.680;2022-07-29T10:05:18;27.40;1.00
10417;DHT22;5255;49.432;8.680;2022-07-29T10:07:48;27.20;1.00
10417;DHT22;5255;49.432;8.680;2022-07-29T10:10:23;26.80;1.00
10417;DHT22;5255;49.432;8.680;2022-07-29T10:12:53;26.80;1.00
10417;DHT22;5255;49.432;8.680;2022-07-29T10:15:22;26.80;1.00
10417;DHT22;5255;49.432;8.680;2022-07-29T10:17:51;26.70;1.00
10417;DHT22;5255;49.432;8.680;2022-07-29T10:20:20;26.90;1.00
10417;DHT22;5255;49.432;8.680;2022-07-29T10:22:47;27.20;1.00
10417;DHT22;5255;49.432;8.680;2022-07-29T10:25:16;27.30;1.00
10417;DHT22;5255;49.432;8.680;2022-07-29T10:27:44;27.50;1.00
10417;DHT22;5255;49.432;8.680;2022-07-29T10:30:13;27.20;1.00
10417;DHT22;5255;49.432;8.680;2022-07-29T10:32:57;27.40;1.00
10417;DHT22;5255;49.432;8.680;2022-07-29T10:35:38;27.50;1.00
10417;DHT22;5255;49.432;8.680;2022-07-29T10:38:33;26.90;1.00
10417;DHT22;5255;49.432;8.680;2022-07-29T10:41:16;26.50;1.00
10417;DHT22;5255;49.432;8.680;2022-07-29T10:43:57;26.80;1.00
10417;DHT22;5255;49.432;8.680;2022-07-29T10:46:25;27.30;1.00
10417;DHT22;5255;49.432;8.680;2022-07-29T10:49:07;27.40;1.00
10417;DHT22;5255;49.432;8.680;2022-07-29T10:51:54;27.40;1.00
10417;DHT22;5255;49.432;8.680;2022-07-29T10:54:37;27.70;1.00
10417;DHT22;5255;49.432;8.680;2022-07-29T10:57:16;27.90;1.00
10417;DHT22;5255;49.432;8.680;2022-07-29T10:59:45;27.90;1.00
10417;DHT22;5255;49.432;8.680;2022-07-29T11:02:40;28.00;1.00
10417;DHT22;5255;49.432;8.680;2022-07-29T11:05:11;27.50;1.00
10417;DHT22;5255;49.432;8.680;2022-07-29T11:08:01;27.60;1.00
10417;DHT22;5255;49.432;8.680;2022-07-29T11:10:26;28.30;1.00
10417;DHT22;5255;49.432;8.680;2022-07-29T11:12:53;28.40;1.00
10417;DHT22;5255;49.432;8.680;2022-07-29T11:15:21;28.70;1.00
10417;DHT22;5255;49.432;8.680;2022-07-29T11:18:08;29.30;1.00
10417;DHT22;5255;49.432;8.680;2022-07-29T11:20:41;29.00;1.00
10417;DHT22;5255;49.432;8.680;2022-07-29T11:23:26;28.70;1.00
10417;DHT22;5255;49.432;8.680;2022-07-29T11:26:13;28.60;1.00
10417;DHT22;5255;49.432;8.680;2022-07-29T11:28:50;28.60;1.00
10417;DHT22;5255;49.432;8.680;2022-07-29T11:31:31;29.10;1.00
10417;DHT22;5255;49.432;8.680;2022-07-29T11:34:18;29.40;1.00
10417;DHT22;5255;49.432;8.680;2022-07-29T11:37:18;29.60;1.00
10417;DHT22;5255;49.432;8.680;2022-07-29T11:39:46;29.10;1.00
10417;DHT22;5255;49.432;8.680;2022-07-29T11:42:42;28.90;1.00
10417;DHT22;5255;49.432;8.680;2022-07-29T11:45:11;28.80;1.00
10417;DHT22;5255;49.432;8.680;2022-07-29T11:47:40;28.40;1.00
10417;DHT22;5255;49.432;8.680;2022-07-29T11:50:10;28.40;1.00
10417;DHT22;5255;49.432;8.680;2022-07-29T11:52:41;28.50;1.00
10417;DHT22;5255;49.432;8.680;2022-07-29T11:55:12;28.60;1.00
10417;DHT22;5255;49.432;8.680;2022-07-29T11:57:46;28.60;1.00
10417;DHT22;5255;49.432;8.680;2022-07-29T12:00:25;28.60;1.00
10417;DHT22;5255;49.432;8.680;2022-07-29T12:02:52;28.80;1.00
10417;DHT22;5255;49.432;8.680;2022-07-29T12:05:20;28.60;1.00
10417;DHT22;5255;49.432;8.680;2022-07-29T12:07:48;28.80;1.00
10417;DHT22;5255;49.432;8.680;2022-07-29T12:10:16;28.80;1.00
10417;DHT22;5255;49.432;8.680;2022-07-29T12:12:51;28.80;1.00
10417;DHT22;5255;49.432;8.680;2022-07-29T12:15:19;29.10;1.00
10417;DHT22;5255;49.432;8.680;2022-07-29T12:17:47;29.40;1.00
10417;DHT22;5255;49.432;8.680;2022-07-29T12:20:22;29.50;1.00
10417;DHT22;5255;49.432;8.680;2022-07-29T12:22:51;29.00;1.00
10417;DHT22;5255;49.432;8.680;2022-07-29T12:25:19;29.40;1.00
10417;DHT22;5255;49.432;8.680;2022-07-29T12:27:58;29.50;1.00
10417;DHT22;5255;49.432;8.680;2022-07-29T12:30:38;29.20;1.00
10417;DHT22;5255;49.432;8.680;2022-07-29T12:33:18;29.20;1.00
10417;DHT22;5255;49.432;8.680;2022-07-29T12:35:47;29.10;1.00
10417;DHT22;5255;49.432;8.680;2022-07-29T12:38:16;29.60;1.00
10417;DHT22;5255;49.432;8.680;2022-07-29T12:40:45;29.70;1.00
10417;DHT22;5255;49.432;8.680;2022-07-29T12:43:14;29.40;1.00
10417;DHT22;5255;49.432;8.680;2022-07-29T12:45:43;29.20;1.00
10417;DHT22;5255;49.432;8.680;2022-07-29T12:48:10;29.50;1.00
10417;DHT22;5255;49.432;8.680;2022-07-29T12:50:53;29.20;1.00
10417;DHT22;5255;49.432;8.680;2022-07-29T12:53:22;29.40;1.00
10417;DHT22;5255;49.432;8.680;2022-07-29T12:55:51;29.90;1.00
10417;DHT22;5255;49.432;8.680;2022-07-29T12:58:32;29.80;1.00
10417;DHT22;5255;49.432;8.680;2022-07-29T13:01:11;30.20;1.00
10417;DHT22;5255;49.432;8.680;2022-07-29T13:03:52;29.80;1.00
10417;DHT22;5255;49.432;8.680;2022-07-29T13:06:33;29.70;1.00
10417;DHT22;5255;49.432;8.680;2022-07-29T13:09:05;29.30;1.00
10417;DHT22;5255;49.432;8.680;2022-07-29T13:11:34;29.10;1.00
10417;DHT22;5255;49.432;8.680;2022-07-29T13:14:01;29.30;1.00
10417;DHT22;5255;49.432;8.680;2022-07-29T13:16:28;29.60;1.00
10417;DHT22;5255;49.432;8.680;2022-07-29T13:19:09;29.70;1.00
10417;DHT22;5255;49.432;8.680;2022-07-29T13:21:38;30.00;99.90
10417;DHT22;5255;49.432;8.680;2022-07-29T13:24:07;29.90;99.90
10417;DHT22;5255;49.432;8.680;2022-07-29T13:26:36;30.00;99.90
10417;DHT22;5255;49.432;8.680;2022-07-29T13:29:06;30.20;99.90
10417;DHT22;5255;49.432;8.680;2022-07-29T13:31:33;30.00;99.90
10417;DHT22;5255;49.432;8.680;2022-07-29T13:34:01;29.90;99.90
10417;DHT22;5255;49.432;8.680;2022-07-29T13:36:28;29.70;99.90
10417;DHT22;5255;49.432;8.680;2022-07-29T13:38:55;29.60;99.90
10417;DHT22;5255;49.432;8.680;2022-07-29T13:41:24;29.60;99.90
10417;DHT22;5255;49.432;8.680;2022-07-29T13:43:51;29.30;99.90
10417;DHT22;5255;49.432;8.680;2022-07-29T13:46:18;29.10;99.90
10417;DHT22;5255;49.432;8.680;2022-07-29T13:48:45;29.40;99.90
10417;DHT22;5255;49.432;8.680;2022-07-29T13:51:12;29.30;99.90
10417;DHT22;5255;49.432;8.680;2022-07-29T13:53:39;29.40;99.90
10417;DHT22;5255;49.432;8.680;2022-07-29T13:56:06;29.50;99.90
10417;DHT22;5255;49.432;8.680;2022-07-29T13:58:35;29.40;99.90
10417;DHT22;5255;49.432;8.680;2022-07-29T14:01:02;29.30;99.90
10417;DHT22;5255;49.432;8.680;2022-07-29T14:03:30;29.40;99.90
10417;DHT22;5255;49.432;8.680;2022-07-29T14:05:57;29.30;99.90
10417;DHT22;5255;49.432;8.680;2022-07-29T14:08:25;29.30;99.90
10417;DHT22;5255;49.432;8.680;2022-07-29T14:10:53;29.50;99.90
10417;DHT22;5255;49.432;8.680;2022-07-29T14:13:20;29.30;99.90
10417;DHT22;5255;49.432;8.680;2022-07-29T14:15:48;29.00;1.00
10417;DHT22;5255;49.432;8.680;2022-07-29T14:18:15;29.00;99.90
10417;DHT22;5255;49.432;8.680;2022-07-29T14:20:42;29.00;99.90
10417;DHT22;5255;49.432;8.680;2022-07-29T14:23:09;28.90;99.90
10417;DHT22;5255;49.432;8.680;2022-07-29T14:25:36;28.80;99.90
10417;DHT22;5255;49.432;8.680;2022-07-29T14:28:04;29.00;99.90
10417;DHT22;5255;49.432;8.680;2022-07-29T14:30:31;29.10;99.90
10417;DHT22;5255;49.432;8.680;2022-07-29T14:33:00;29.10;99.90
10417;DHT22;5255;49.432;8.680;2022-07-29T14:35:27;29.00;99.90
10417;DHT22;5255;49.432;8.680;2022-07-29T14:37:54;29.00;99.90
10417;DHT22;5255;49.432;8.680;2022-07-29T14:40:21;29.00;99.90
10417;DHT22;5255;49.432;8.680;2022-07-29T14:42:49;28.80;99.90
10417;DHT22;5255;49.432;8.680;2022-07-29T14:45:16;29.10;99.90
10417;DHT22;5255;49.432;8.680;2022-07-29T14:47:43;29.20;99.90
10417;DHT22;5255;49.432;8.680;2022-07-29T14:50:11;29.50;99.90
10417;DHT22;5255;49.432;8.680;2022-07-29T14:52:39;29.30;99.90
10417;DHT22;5255;49.432;8.680;2022-07-29T14:55:07;29.50;99.90
10417;DHT22;5255;49.432;8.680;2022-07-29T14:57:34;29.60;99.90
10417;DHT22;5255;49.432;8.680;2022-07-29T15:00:01;29.70;99.90
10417;DHT22;5255;49.432;8.680;2022-07-29T15:02:28;29.60;99.90
10417;DHT22;5255;49.432;8.680;2022-07-29T15:04:55;29.50;99.90
10417;DHT22;5255;49.432;8.680;2022-07-29T15:07:24;29.50;99.90
10417;DHT22;5255;49.432;8.680;2022-07-29T15:09:51;29.50;99.90
10417;DHT22;5255;49.432;8.680;2022-07-29T15:12:18;29.70;99.90
10417;DHT22;5255;49.432;8.680;2022-07-29T15:14:45;29.70;99.90
10417;DHT22;5255;49.432;8.680;2022-07-29T15:17:12;29.60;99.90
10417;DHT22;5255;49.432;8.680;2022-07-29T15:19:39;29.70;99.90
10417;DHT22;5255;49.432;8.680;2022-07-29T15:22:07;29.70;99.90
10417;DHT22;5255;49.432;8.680;2022-07-29T15:24:57;29.40;99.90
10417;DHT22;5255;49.432;8.680;2022-07-29T15:27:38;29.50;99.90
10417;DHT22;5255;49.432;8.680;2022-07-29T15:30:09;29.70;99.90
10417;DHT22;5255;49.432;8.680;2022-07-29T15:32:36;29.40;99.90
10417;DHT22;5255;49.432;8.680;2022-07-29T15:35:04;29.50;99.90
10417;DHT22;5255;49.432;8.680;2022-07-29T15:37:31;29.70;99.90
10417;DHT22;5255;49.432;8.680;2022-07-29T15:40:02;29.70;99.90
10417;DHT22;5255;49.432;8.680;2022-07-29T15:42:29;29.80;99.90
10417;DHT22;5255;49.432;8.680;2022-07-29T15:44:56;29.70;99.90
10417;DHT22;5255;49.432;8.680;2022-07-29T15:47:23;29.70;99.90
10417;DHT22;5255;49.432;8.680;2022-07-29T15:49:50;29.90;99.90
10417;DHT22;5255;49.432;8.680;2022-07-29T15:52:18;30.20;99.90
10417;DHT22;5255;49.432;8.680;2022-07-29T15:54:46;31.00;99.90
10417;DHT22;5255;49.432;8.680;2022-07-29T15:57:14;31.10;99.90
10417;DHT22;5255;49.432;8.680;2022-07-29T15:59:41;31.20;99.90
10417;DHT22;5255;49.432;8.680;2022-07-29T16:02:08;31.80;99.90
10417;DHT22;5255;49.432;8.680;2022-07-29T16:04:35;31.90;99.90
10417;DHT22;5255;49.432;8.680;2022-07-29T16:07:02;31.80;99.90
10417;DHT22;5255;49.432;8.680;2022-07-29T16:09:31;31.10;99.90
10417;DHT22;5255;49.432;8.680;2022-07-29T16:11:58;31.10;99.90
10417;DHT22;5255;49.432;8.680;2022-07-29T16:14:27;31.50;99.90
10417;DHT22;5255;49.432;8.680;2022-07-29T16:16:54;30.90;99.90